Currently 52°F in Simi Valley, California, USA
52°F
52°F / 36°F
calm
0.00"
Thursday, February 22, 2018 10:18 AM PST

Simi Valley, California Climate Summary
Typical December Day

Normal High:    65.7°F (18.7°C)
Normal Low:    46.9°F (8.3°C)
Average:    55.8°F (13.2°C)

Hour    Temperature    Wind Speed    Humidity
12:00 AM    52°F (11°C)    5 mph    57%
1:00 AM    52°F (11°C)    5 mph    57%
2:00 AM    51°F (11°C)    5 mph    58%
3:00 AM    51°F (10°C)    5 mph    58%
4:00 AM    51°F (10°C)    5 mph    58%
5:00 AM    50°F (10°C)    5 mph    58%
6:00 AM    50°F (10°C)    5 mph    58%
7:00 AM    50°F (10°C)    5 mph    58%
8:00 AM    52°F (11°C)    5 mph    57%
9:00 AM    56°F (13°C)    6 mph    54%
10:00 AM    59°F (15°C)    6 mph    49%
11:00 AM    62°F (17°C)    6 mph    45%
12:00 PM    64°F (18°C)    6 mph    42%
1:00 PM    65°F (18°C)    6 mph    41%
2:00 PM    65°F (18°C)    6 mph    40%
3:00 PM    64°F (18°C)    6 mph    42%
4:00 PM    62°F (17°C)    6 mph    45%
5:00 PM    60°F (15°C)    5 mph    50%
6:00 PM    57°F (14°C)    4 mph    53%
7:00 PM    55°F (13°C)    5 mph    54%
8:00 PM    54°F (12°C)    5 mph    55%
9:00 PM    53°F (12°C)    5 mph    56%
10:00 PM    53°F (12°C)    5 mph    57%
11:00 PM    52°F (11°C)    5 mph    57%
 

The Simi Valley, California weather pages are a service of WeatherCurrents.
Copyright ©Thu Feb 22 10:19:14 PST 2018  WeatherCurrents. All rights reserved. - Submit questions and comments - Privacy Policy